createdAt,value
2024-02-29T00:00:39.428Z,100995.20
2024-02-29T00:01:43.898Z,100997.83
2024-02-29T00:02:46.374Z,101000.43
2024-02-29T00:03:48.731Z,101002.13
2024-02-29T00:04:52.271Z,101001.30
2024-02-29T00:05:54.740Z,101001.33
2024-02-29T00:06:57.075Z,101002.25
2024-02-29T00:07:59.253Z,101004.09
2024-02-29T00:09:01.556Z,100999.73
2024-02-29T00:10:04.757Z,101005.05
2024-02-29T00:11:07.349Z,101006.75
2024-02-29T00:12:09.751Z,101001.50
2024-02-29T00:13:12.231Z,101005.05
2024-02-29T00:14:14.805Z,101000.61
2024-02-29T00:15:17.056Z,101008.48
2024-02-29T00:16:19.526Z,101004.13
2024-02-29T00:17:21.773Z,100997.98
2024-02-29T00:18:24.061Z,101012.94
2024-02-29T00:19:26.927Z,101003.37
2024-02-29T00:20:29.484Z,100998.16
2024-02-29T00:21:32.249Z,100996.39
2024-02-29T00:22:34.462Z,100996.48
2024-02-29T00:23:37.629Z,100996.57
2024-02-29T00:24:40.088Z,101005.41
2024-02-29T00:25:42.445Z,100997.67
2024-02-29T00:26:45.051Z,100996.00
2024-02-29T00:27:47.270Z,100996.17
2024-02-29T00:28:49.752Z,100998.94
2024-02-29T00:29:52.138Z,101000.78
2024-02-29T00:30:54.613Z,100998.16
2024-02-29T00:31:56.848Z,100993.86
2024-02-29T00:32:59.362Z,100996.51
2024-02-29T00:34:01.745Z,101001.88
2024-02-29T00:35:04.569Z,100991.40
2024-02-29T00:36:10.056Z,100987.91
2024-02-29T00:37:11.692Z,100995.87
2024-02-29T00:38:14.005Z,100998.47
2024-02-29T00:39:16.325Z,100992.35
2024-02-29T00:40:19.258Z,100993.22
2024-02-29T00:41:21.718Z,100997.54
2024-02-29T00:42:23.953Z,100995.76
2024-02-29T00:43:26.711Z,101000.08
2024-02-29T00:44:28.972Z,101001.00
2024-02-29T00:45:31.124Z,100996.65
2024-02-29T00:46:33.471Z,100997.52
2024-02-29T00:47:35.658Z,100996.63
2024-02-29T00:48:38.173Z,100998.38
2024-02-29T00:49:40.189Z,100991.26
2024-02-29T00:50:42.835Z,100991.17
2024-02-29T00:51:45.212Z,100991.95
2024-02-29T00:52:47.552Z,100994.52
2024-02-29T00:53:49.913Z,100994.44
2024-02-29T00:54:52.382Z,100987.52
2024-02-29T00:55:54.704Z,100990.92
2024-02-29T00:56:57.234Z,100998.80
2024-02-29T00:57:59.628Z,100996.25
2024-02-29T00:59:01.853Z,100997.98
2024-02-29T01:00:06.358Z,100991.81
2024-02-29T01:01:08.892Z,100996.23
2024-02-29T01:02:11.093Z,100992.82
2024-02-29T01:03:13.333Z,100996.34
2024-02-29T01:04:17.534Z,100991.15
2024-02-29T01:05:20.164Z,100995.55
2024-02-29T01:06:22.488Z,100991.15
2024-02-29T01:07:24.875Z,100990.28
2024-02-29T01:08:27.225Z,100990.28
2024-02-29T01:09:32.200Z,100984.14
2024-02-29T01:10:34.738Z,100990.28
2024-02-29T01:11:37.573Z,100990.28
2024-02-29T01:12:40.985Z,100987.66
2024-02-29T01:13:43.332Z,100994.66
2024-02-29T01:14:45.585Z,100991.23
2024-02-29T01:15:48.148Z,100985.20
2024-02-29T01:16:50.571Z,100984.31
2024-02-29T01:17:52.954Z,100978.19
2024-02-29T01:18:55.383Z,100983.44
2024-02-29T01:19:57.770Z,100979.95
2024-02-29T01:21:00.253Z,100980.81
2024-02-29T01:22:02.622Z,100986.15
2024-02-29T01:23:04.722Z,100984.41
2024-02-29T01:24:07.196Z,100983.61
2024-02-29T01:25:09.666Z,100985.34
2024-02-29T01:26:12.513Z,100985.37
2024-02-29T01:27:14.869Z,100981.84
2024-02-29T01:28:17.160Z,100988.86
2024-02-29T01:29:19.494Z,100987.24
2024-02-29T01:30:21.841Z,100986.45
2024-02-29T01:31:24.182Z,100989.95
2024-02-29T01:32:28.678Z,100984.72
2024-02-29T01:33:30.843Z,100985.56
2024-02-29T01:34:33.308Z,100986.45
2024-02-29T01:35:35.778Z,100979.53
2024-02-29T01:36:38.576Z,100976.13
2024-02-29T01:37:42.233Z,100977.94
2024-02-29T01:38:44.504Z,100980.50
2024-02-29T01:39:47.012Z,100969.20
2024-02-29T01:40:49.444Z,100971.02
2024-02-29T01:41:51.864Z,100974.59
2024-02-29T01:42:54.220Z,100969.34
2024-02-29T01:43:56.736Z,100972.83
2024-02-29T01:44:59.119Z,100973.72
2024-02-29T01:46:12.863Z,100974.59
2024-02-29T01:47:15.373Z,100973.66
2024-02-29T01:48:19.742Z,100977.21
2024-02-29T01:49:25.711Z,100975.45
2024-02-29T01:50:29.105Z,100969.28
2024-02-29T01:51:32.107Z,100976.29
2024-02-29T01:52:37.608Z,100971.91
2024-02-29T01:53:40.211Z,100973.58
2024-02-29T01:54:43.387Z,100974.37
2024-02-29T01:55:45.729Z,100977.80
2024-02-29T01:56:48.467Z,100976.09
2024-02-29T01:57:50.880Z,100972.61
2024-02-29T01:58:56.216Z,100970.88
2024-02-29T01:59:58.652Z,100972.63
2024-02-29T02:01:02.144Z,100971.80
2024-02-29T02:02:05.272Z,100972.61
2024-02-29T02:03:07.721Z,100970.88
2024-02-29T02:04:10.149Z,100970.06
2024-02-29T02:05:12.499Z,100972.63
2024-02-29T02:06:14.812Z,100974.37
2024-02-29T02:07:17.190Z,100975.17
2024-02-29T02:08:19.482Z,100969.06
2024-02-29T02:09:21.741Z,100976.09
2024-02-29T02:10:24.203Z,100973.47
2024-02-29T02:11:26.705Z,100975.17
2024-02-29T02:12:29.304Z,100969.91
2024-02-29T02:13:31.449Z,100971.60
2024-02-29T02:14:33.809Z,100971.58
2024-02-29T02:15:36.084Z,100978.50
2024-02-29T02:16:38.607Z,100975.02
2024-02-29T02:17:42.543Z,100981.12
2024-02-29T02:18:45.007Z,100971.52
2024-02-29T02:19:47.565Z,100976.74
2024-02-29T02:20:50.160Z,100978.50
2024-02-29T02:21:52.626Z,100980.12
2024-02-29T02:22:55.563Z,100979.22
2024-02-29T02:23:57.749Z,100975.70
2024-02-29T02:25:00.002Z,100976.55
2024-02-29T02:26:02.486Z,100979.14
2024-02-29T02:27:05.032Z,100976.52
2024-02-29T02:28:07.557Z,100982.66
2024-02-29T02:29:10.094Z,100977.41
2024-02-29T02:30:12.886Z,100979.08
2024-02-29T02:31:15.259Z,100978.12
2024-02-29T02:32:17.615Z,100982.55
2024-02-29T02:33:20.629Z,100979.06
2024-02-29T02:34:23.074Z,100973.80
2024-02-29T02:35:25.331Z,100979.95
2024-02-29T02:36:27.810Z,100974.70
2024-02-29T02:37:33.804Z,100979.92
2024-02-29T02:38:36.211Z,100971.18
2024-02-29T02:39:38.834Z,100978.11
2024-02-29T02:40:41.205Z,100970.17
2024-02-29T02:41:43.688Z,100968.50
2024-02-29T02:42:46.055Z,100973.72
2024-02-29T02:43:48.742Z,100967.69
2024-02-29T02:44:51.143Z,100969.59
2024-02-29T02:45:53.380Z,100971.44
2024-02-29T02:46:56.404Z,100969.67
2024-02-29T02:47:58.673Z,100968.78
2024-02-29T02:49:00.992Z,100971.49
2024-02-29T02:50:03.898Z,100969.70
2024-02-29T02:51:06.164Z,100964.45
2024-02-29T02:52:09.064Z,100969.67
2024-02-29T02:53:11.406Z,100971.44
2024-02-29T02:54:13.794Z,100969.70
2024-02-29T02:55:16.254Z,100965.38
2024-02-29T02:56:18.636Z,100970.62
2024-02-29T02:57:21.023Z,100970.62
2024-02-29T02:58:23.154Z,100973.28
2024-02-29T02:59:25.653Z,100977.69
2024-02-29T03:00:28.092Z,100975.16
2024-02-29T03:01:31.518Z,100968.23
2024-02-29T03:02:33.885Z,100967.44
2024-02-29T03:03:36.070Z,100968.34
2024-02-29T03:04:38.456Z,100976.29
2024-02-29T03:05:40.822Z,100978.10
2024-02-29T03:06:43.291Z,100975.48
2024-02-29T03:07:45.657Z,100978.08
2024-02-29T03:08:48.028Z,100982.46
2024-02-29T03:09:50.296Z,100982.46
2024-02-29T03:10:52.820Z,100977.13
2024-02-29T03:11:55.155Z,100981.43
2024-02-29T03:12:57.456Z,100971.83
2024-02-29T03:13:59.788Z,100977.96
2024-02-29T03:15:02.052Z,100971.88
2024-02-29T03:16:05.016Z,100983.27
2024-02-29T03:17:07.233Z,100978.99
2024-02-29T03:18:09.499Z,100978.08
2024-02-29T03:19:11.924Z,100978.97
2024-02-29T03:20:14.086Z,100977.16
2024-02-29T03:21:16.497Z,100973.66
2024-02-29T03:22:18.915Z,100971.96
2024-02-29T03:23:21.297Z,100972.06
2024-02-29T03:24:23.601Z,100970.47
2024-02-29T03:25:27.770Z,100975.72
2024-02-29T03:26:30.443Z,100968.77
2024-02-29T03:27:32.694Z,100969.64
2024-02-29T03:28:34.944Z,100960.93
2024-02-29T03:29:37.382Z,100962.73
2024-02-29T03:30:39.841Z,100963.61
2024-02-29T03:31:45.316Z,100957.55
2024-02-29T03:32:47.747Z,100960.17
2024-02-29T03:33:50.124Z,100952.30
2024-02-29T03:34:52.608Z,100960.20
2024-02-29T03:35:54.967Z,100959.45
2024-02-29T03:36:57.789Z,100961.22
2024-02-29T03:38:00.108Z,100957.84
2024-02-29T03:39:02.522Z,100955.22
2024-02-29T03:40:06.596Z,100960.47
2024-02-29T03:41:09.013Z,100956.06
2024-02-29T03:42:11.527Z,100963.91
2024-02-29T03:43:14.019Z,100961.28
2024-02-29T03:44:16.341Z,100961.30
2024-02-29T03:45:18.429Z,100957.79
2024-02-29T03:46:20.918Z,100957.79
2024-02-29T03:47:23.186Z,100959.60
2024-02-29T03:48:25.550Z,100961.36
2024-02-29T03:49:27.895Z,100962.22
2024-02-29T03:50:30.364Z,100969.23
2024-02-29T03:51:33.844Z,100968.44
2024-02-29T03:52:36.300Z,100971.12
2024-02-29T03:53:38.754Z,100971.19
2024-02-29T03:54:41.055Z,100967.76
2024-02-29T03:55:43.208Z,100967.76
2024-02-29T03:56:45.836Z,100975.63
2024-02-29T03:57:48.147Z,100974.70
2024-02-29T03:58:50.435Z,100973.84
2024-02-29T03:59:52.695Z,100968.57
2024-02-29T04:00:55.297Z,100969.52
2024-02-29T04:01:57.565Z,100971.33
2024-02-29T04:03:00.127Z,100974.86
2024-02-29T04:04:02.438Z,100970.53
2024-02-29T04:05:06.792Z,100971.41
2024-02-29T04:06:09.711Z,100980.20
2024-02-29T04:07:12.107Z,100979.29
2024-02-29T04:08:14.521Z,100975.85
2024-02-29T04:09:16.759Z,100980.20
2024-02-29T04:10:19.347Z,100974.05
2024-02-29T04:11:21.640Z,100977.45
2024-02-29T04:12:23.802Z,100974.78
2024-02-29T04:13:26.268Z,100976.59
2024-02-29T04:14:28.609Z,100986.27
2024-02-29T04:15:30.992Z,100975.87
2024-02-29T04:16:37.108Z,100980.28
2024-02-29T04:17:39.553Z,100980.28
2024-02-29T04:18:42.011Z,100987.30
2024-02-29T04:19:44.213Z,100985.55
2024-02-29T04:20:46.644Z,100987.28
2024-02-29T04:21:49.045Z,100984.69
2024-02-29T04:22:51.365Z,100989.03
2024-02-29T04:23:53.675Z,100987.23
2024-02-29T04:24:55.969Z,100991.58
2024-02-29T04:25:58.276Z,100987.20
2024-02-29T04:27:00.717Z,100988.08
2024-02-29T04:28:03.809Z,100989.83
2024-02-29T04:29:06.237Z,100993.34
2024-02-29T04:30:10.008Z,100991.61
2024-02-29T04:31:12.395Z,100988.91
2024-02-29T04:32:14.816Z,100996.75
2024-02-29T04:33:17.115Z,100987.08
2024-02-29T04:34:19.512Z,100988.81
2024-02-29T04:35:21.831Z,100986.11
2024-02-29T04:36:24.089Z,100988.76
2024-02-29T04:37:26.427Z,100987.00
2024-02-29T04:38:28.627Z,100986.95
2024-02-29T04:39:31.036Z,100994.00
2024-02-29T04:40:33.455Z,100990.59
2024-02-29T04:41:35.659Z,100996.77
2024-02-29T04:42:38.939Z,100991.73
2024-02-29T04:43:41.111Z,100995.34
2024-02-29T04:44:43.456Z,100990.18
2024-02-29T04:45:45.646Z,100994.55
2024-02-29T04:46:47.956Z,100998.06
2024-02-29T04:47:51.455Z,100999.81
2024-02-29T04:48:53.757Z,101001.55
2024-02-29T04:49:56.184Z,100997.17
2024-02-29T04:50:58.457Z,100999.80
2024-02-29T04:52:00.740Z,100999.72
2024-02-29T04:53:03.203Z,101004.16
2024-02-29T04:54:05.675Z,100998.91
2024-02-29T04:55:08.999Z,100999.72
2024-02-29T04:56:11.473Z,101005.78
2024-02-29T04:57:13.714Z,101008.38
2024-02-29T04:58:16.020Z,101007.45
2024-02-29T04:59:18.364Z,101008.41
2024-02-29T05:00:20.875Z,101002.27
2024-02-29T05:01:23.443Z,101004.05
2024-02-29T05:02:26.023Z,101001.53
2024-02-29T05:03:28.352Z,101003.28
2024-02-29T05:04:30.734Z,101006.84
2024-02-29T05:05:33.017Z,101008.55
2024-02-29T05:06:35.592Z,101005.98
2024-02-29T05:07:37.792Z,101006.07
2024-02-29T05:08:40.236Z,101003.45
2024-02-29T05:09:42.704Z,101006.07
2024-02-29T05:10:45.073Z,101008.69
2024-02-29T05:11:47.415Z,101004.39
2024-02-29T05:12:50.061Z,101013.12
2024-02-29T05:13:52.737Z,101010.48
2024-02-29T05:14:55.125Z,101010.48
2024-02-29T05:15:57.480Z,101003.45
2024-02-29T05:17:00.193Z,101007.86
2024-02-29T05:18:03.192Z,101008.74
2024-02-29T05:19:05.523Z,101008.80
2024-02-29T05:20:08.705Z,101007.92
2024-02-29T05:21:11.116Z,101013.24
2024-02-29T05:22:13.399Z,101020.23
2024-02-29T05:23:15.692Z,101005.38
2024-02-29T05:24:18.587Z,101005.39
2024-02-29T05:25:22.856Z,101014.98
2024-02-29T05:26:25.331Z,101012.25
2024-02-29T05:27:27.498Z,101001.75
2024-02-29T05:28:29.905Z,101006.98
2024-02-29T05:29:32.260Z,101006.07
2024-02-29T05:30:34.817Z,101005.19
2024-02-29T05:31:38.016Z,101002.56
2024-02-29T05:32:40.454Z,101005.17
2024-02-29T05:33:42.901Z,101011.22
2024-02-29T05:34:46.165Z,101013.77
2024-02-29T05:35:48.573Z,101005.86
2024-02-29T05:36:51.105Z,101013.70
2024-02-29T05:37:54.678Z,101015.38
2024-02-29T05:38:57.586Z,101016.20
2024-02-29T05:39:59.812Z,101011.81
2024-02-29T05:41:03.524Z,101015.31
2024-02-29T05:42:06.284Z,101005.77
2024-02-29T05:43:08.625Z,101011.00
2024-02-29T05:44:11.096Z,101006.65
2024-02-29T05:45:13.368Z,101011.02
2024-02-29T05:46:15.983Z,101014.52
2024-02-29T05:47:18.499Z,101005.70
2024-02-29T05:48:20.874Z,101002.14
2024-02-29T05:49:23.612Z,100996.83
2024-02-29T05:50:26.413Z,101001.12
2024-02-29T05:51:28.727Z,101001.12
2024-02-29T05:52:31.141Z,100998.45
2024-02-29T05:53:33.648Z,101003.63
2024-02-29T05:54:36.513Z,100999.22
2024-02-29T05:55:41.564Z,101007.83
2024-02-29T05:56:44.134Z,101014.77
2024-02-29T05:57:46.726Z,101012.23
2024-02-29T05:58:49.280Z,101016.58
2024-02-29T05:59:51.724Z,101015.70
2024-02-29T06:00:54.682Z,101017.30
2024-02-29T06:01:57.278Z,101006.73
2024-02-29T06:03:00.208Z,101013.66
2024-02-29T06:04:02.896Z,101010.09
2024-02-29T06:05:05.604Z,101012.72
2024-02-29T06:06:08.390Z,101010.91
2024-02-29T06:07:10.641Z,101005.66
2024-02-29T06:08:16.295Z,101003.03
2024-02-29T06:09:17.572Z,101003.90
2024-02-29T06:10:20.320Z,101009.09
2024-02-29T06:11:22.757Z,101015.12
2024-02-29T06:12:25.021Z,101008.07
2024-02-29T06:13:27.483Z,101006.17
2024-02-29T06:14:29.675Z,101014.91
2024-02-29T06:15:32.174Z,101016.65
2024-02-29T06:16:34.550Z,101016.56
2024-02-29T06:17:37.788Z,101011.27
2024-02-29T06:18:40.505Z,101017.38
2024-02-29T06:19:42.941Z,101019.14
2024-02-29T06:20:45.363Z,101016.49
2024-02-29T06:21:47.858Z,101019.92
2024-02-29T06:22:50.493Z,101027.80
2024-02-29T06:23:52.850Z,101039.16
2024-02-29T06:24:55.244Z,101028.66
2024-02-29T06:25:57.533Z,101026.91
2024-02-29T06:27:00.019Z,101027.73
2024-02-29T06:28:03.079Z,101027.66
2024-02-29T06:29:05.867Z,101026.77
2024-02-29T06:30:09.872Z,101025.91
2024-02-29T06:31:12.656Z,101027.73
2024-02-29T06:32:15.348Z,101031.23
2024-02-29T06:33:17.699Z,101033.83
2024-02-29T06:34:20.179Z,101032.89
2024-02-29T06:35:22.707Z,101036.32
2024-02-29T06:36:25.447Z,101033.70
2024-02-29T06:37:27.948Z,101033.64
2024-02-29T06:38:30.568Z,101039.67
2024-02-29T06:39:33.711Z,101043.09
2024-02-29T06:40:36.454Z,101042.16
2024-02-29T06:41:41.900Z,101036.91
2024-02-29T06:42:44.323Z,101036.80
2024-02-29T06:43:46.713Z,101041.98
2024-02-29T06:44:50.972Z,101041.05
2024-02-29T06:45:53.336Z,101043.57
2024-02-29T06:46:56.169Z,101034.75
2024-02-29T06:47:58.750Z,101032.84
2024-02-29T06:49:02.156Z,101037.08
2024-02-29T06:50:06.627Z,101033.48
2024-02-29T06:51:09.462Z,101025.52
2024-02-29T06:52:12.473Z,101022.83
2024-02-29T06:53:15.154Z,101026.23
2024-02-29T06:54:18.105Z,101027.02
2024-02-29T06:55:22.488Z,101025.98
2024-02-29T06:56:24.981Z,101022.34
2024-02-29T06:57:27.492Z,101031.86
2024-02-29T06:58:29.755Z,101033.48
2024-02-29T06:59:32.530Z,101030.73
2024-02-29T07:00:35.164Z,101034.08
2024-02-29T07:01:38.052Z,101031.30
2024-02-29T07:02:41.014Z,101039.03
2024-02-29T07:03:43.431Z,101032.78
2024-02-29T07:04:45.797Z,101035.27
2024-02-29T07:05:48.264Z,101032.54
2024-02-29T07:06:50.777Z,101032.52
2024-02-29T07:07:53.106Z,101037.61
2024-02-29T07:08:55.490Z,101037.45
2024-02-29T07:09:58.029Z,101030.41
2024-02-29T07:11:02.520Z,101028.61
2024-02-29T07:12:05.953Z,101032.11
2024-02-29T07:13:08.790Z,101032.91
2024-02-29T07:14:11.458Z,101024.92
2024-02-29T07:15:13.986Z,101023.13
2024-02-29T07:16:16.422Z,101026.56
2024-02-29T07:17:19.120Z,101027.33
2024-02-29T07:18:21.559Z,101022.88
2024-02-29T07:19:24.035Z,101019.28
2024-02-29T07:20:28.814Z,101019.22
2024-02-29T07:21:31.363Z,101018.31
2024-02-29T07:22:33.836Z,101016.49
2024-02-29T07:23:36.196Z,101019.92
2024-02-29T07:24:38.833Z,101021.55
2024-02-29T07:25:41.120Z,101019.82
2024-02-29T07:26:43.679Z,101010.23
2024-02-29T07:27:46.141Z,101013.77
2024-02-29T07:28:48.678Z,101015.59
2024-02-29T07:29:51.464Z,101013.77
2024-02-29T07:30:53.829Z,101007.60
2024-02-29T07:31:56.542Z,101011.84
2024-02-29T07:32:59.273Z,101007.44
2024-02-29T07:34:01.927Z,101020.49
2024-02-29T07:35:04.618Z,101022.95
2024-02-29T07:36:10.078Z,101019.33
2024-02-29T07:37:12.725Z,101022.76
2024-02-29T07:38:15.542Z,101013.80
2024-02-29T07:39:18.060Z,101019.83
2024-02-29T07:40:20.866Z,101020.52
2024-02-29T07:41:56.092Z,101022.41
2024-02-29T07:42:58.717Z,101018.31
2024-02-29T07:44:01.283Z,101018.11
2024-02-29T07:45:04.007Z,101023.16
2024-02-29T07:46:06.837Z,101033.48
2024-02-29T07:47:09.503Z,101025.52
2024-02-29T07:48:12.235Z,101030.58
2024-02-29T07:49:14.736Z,101027.73
2024-02-29T07:50:17.648Z,101033.72
2024-02-29T07:51:20.239Z,101024.84
2024-02-29T07:52:22.635Z,101023.04
2024-02-29T07:53:25.308Z,101021.99
2024-02-29T07:54:29.047Z,101024.41
2024-02-29T07:55:33.771Z,101015.42
2024-02-29T07:56:41.166Z,101020.40
2024-02-29T07:57:44.137Z,101026.31
2024-02-29T07:58:47.461Z,101029.55
2024-02-29T07:59:50.502Z,101024.02
2024-02-29T08:00:53.547Z,101023.86
2024-02-29T08:01:56.370Z,101025.48
2024-02-29T08:03:55.864Z,101019.28
2024-02-29T08:04:58.619Z,101023.09
2024-02-29T08:06:05.473Z,101014.95
2024-02-29T08:07:08.178Z,101020.03
2024-02-29T08:08:10.917Z,101015.63
2024-02-29T08:09:13.744Z,101017.47
2024-02-29T08:10:20.251Z,101013.85
2024-02-29T08:11:22.978Z,101016.30
2024-02-29T08:12:25.666Z,101021.33
2024-02-29T08:13:27.842Z,101014.13
2024-02-29T08:14:31.093Z,101017.47
2024-02-29T08:15:33.639Z,101014.55
2024-02-29T08:16:36.228Z,101019.59
2024-02-29T08:17:38.702Z,101026.47
2024-02-29T08:18:41.125Z,101027.18
2024-02-29T08:19:43.799Z,101027.92
2024-02-29T08:20:46.526Z,101027.67
2024-02-29T08:21:49.026Z,101027.42
2024-02-29T08:22:52.337Z,101028.21
2024-02-29T08:23:54.884Z,101026.31
2024-02-29T08:24:57.613Z,101024.50
2024-02-29T08:26:00.136Z,101026.19
2024-02-29T08:27:02.379Z,101027.84
2024-02-29T08:28:05.513Z,101023.34
2024-02-29T08:29:08.117Z,101027.55
2024-02-29T08:30:13.408Z,101025.77
2024-02-29T08:31:16.131Z,101022.27
2024-02-29T08:32:18.512Z,101022.22
2024-02-29T08:33:20.792Z,101022.95
2024-02-29T08:34:23.240Z,101016.61
2024-02-29T08:35:25.693Z,101019.85
2024-02-29T08:36:28.279Z,101024.80
2024-02-29T08:37:30.682Z,101021.94
2024-02-29T08:38:33.300Z,101020.95
2024-02-29T08:39:35.959Z,101020.03
2024-02-29T08:40:38.659Z,101016.39
2024-02-29T08:41:41.041Z,101018.83
2024-02-29T08:42:43.354Z,101021.28
2024-02-29T08:43:45.575Z,101021.06
2024-02-29T08:44:48.506Z,101019.20
2024-02-29T08:45:50.983Z,101012.09
2024-02-29T08:46:54.983Z,101017.30
2024-02-29T08:47:57.512Z,101019.80
2024-02-29T08:49:03.548Z,101021.23
2024-02-29T08:50:05.354Z,101021.05
2024-02-29T08:51:07.737Z,101019.95
2024-02-29T08:52:10.171Z,101015.31
2024-02-29T08:53:12.485Z,101011.62
2024-02-29T08:54:14.691Z,101002.73
2024-02-29T08:55:18.002Z,101006.24
2024-02-29T08:56:20.627Z,101005.24
2024-02-29T08:57:23.045Z,101004.23
2024-02-29T08:58:25.332Z,101001.59
2024-02-29T08:59:27.638Z,101005.97
2024-02-29T09:00:30.059Z,101013.77
2024-02-29T09:01:33.944Z,101006.69
2024-02-29T09:02:36.236Z,101007.38
2024-02-29T09:03:38.663Z,101012.39
2024-02-29T09:04:40.952Z,101005.95
2024-02-29T09:05:43.270Z,101012.05
2024-02-29T09:06:45.916Z,101004.89
2024-02-29T09:07:50.155Z,101010.10
2024-02-29T09:08:52.522Z,101010.97
2024-02-29T09:09:54.863Z,101003.80
2024-02-29T09:10:57.515Z,101000.96
2024-02-29T09:12:00.189Z,101002.59
2024-02-29T09:13:11.732Z,101000.81
2024-02-29T09:14:08.018Z,101004.00
2024-02-29T09:15:10.419Z,101004.64
2024-02-29T09:16:13.189Z,101003.52
2024-02-29T09:17:17.102Z,101011.25
2024-02-29T09:18:19.316Z,101010.01
2024-02-29T09:19:21.808Z,101000.14
2024-02-29T09:20:24.250Z,101002.78
2024-02-29T09:21:26.659Z,101006.20
2024-02-29T09:22:31.097Z,101004.33
2024-02-29T09:23:33.914Z,101003.32
2024-02-29T09:24:36.249Z,101000.61
2024-02-29T09:25:38.589Z,100996.86
2024-02-29T09:26:41.061Z,100995.64
2024-02-29T09:27:44.306Z,100997.28
2024-02-29T09:28:46.732Z,100996.02
2024-02-29T09:29:49.063Z,101000.09
2024-02-29T09:30:51.912Z,100998.12
2024-02-29T09:31:54.398Z,101000.41
2024-02-29T09:32:56.861Z,101001.94
2024-02-29T09:33:59.406Z,100992.92
2024-02-29T09:35:01.688Z,100998.03
2024-02-29T09:36:11.604Z,100997.97
2024-02-29T09:37:14.006Z,100999.75
2024-02-29T09:38:16.283Z,100998.89
2024-02-29T09:39:18.659Z,100999.69
2024-02-29T09:40:21.016Z,100997.05
2024-02-29T09:41:33.073Z,101002.16
2024-02-29T09:42:28.226Z,101003.72
2024-02-29T09:43:31.254Z,100999.19
2024-02-29T09:44:34.095Z,100993.73
2024-02-29T09:45:38.036Z,100996.07
2024-02-29T09:46:42.185Z,100996.68
2024-02-29T09:47:44.632Z,101006.36
2024-02-29T09:48:48.377Z,101005.34
2024-02-29T09:49:56.669Z,100998.92
2024-02-29T09:50:57.924Z,100998.92
2024-02-29T09:52:01.376Z,100996.97
2024-02-29T09:53:05.510Z,100987.23
2024-02-29T09:54:11.679Z,100990.58
2024-02-29T09:55:17.278Z,100994.16
2024-02-29T09:56:24.842Z,100987.23
2024-02-29T09:57:27.363Z,100987.93
2024-02-29T09:58:30.081Z,100994.16
2024-02-29T09:59:35.011Z,100989.63
2024-02-29T10:00:38.219Z,100991.41
2024-02-29T10:01:41.382Z,100995.69
2024-02-29T10:02:44.329Z,100988.86
2024-02-29T10:03:48.817Z,100993.91
2024-02-29T10:04:51.363Z,100996.49
2024-02-29T10:05:55.176Z,100990.92
2024-02-29T10:06:57.919Z,100990.61
2024-02-29T10:08:04.276Z,100991.97
2024-02-29T10:09:08.039Z,100989.92
2024-02-29T10:11:28.863Z,100988.39
2024-02-29T10:12:33.704Z,100985.48
2024-02-29T10:13:40.148Z,100989.59
2024-02-29T10:14:44.603Z,100990.22
2024-02-29T10:15:51.149Z,100992.50
2024-02-29T10:16:55.553Z,100987.03
2024-02-29T10:18:00.142Z,100986.79
2024-02-29T10:19:03.979Z,100990.06
2024-02-29T10:20:10.230Z,100993.66
2024-02-29T10:21:13.384Z,100992.80
2024-02-29T10:22:20.615Z,100989.20
2024-02-29T10:23:24.532Z,100987.41
2024-02-29T10:24:26.933Z,100989.11
2024-02-29T10:25:33.030Z,100990.73
2024-02-29T10:26:35.944Z,100987.14
2024-02-29T10:27:38.811Z,100982.52
2024-02-29T10:28:42.249Z,100985.87
2024-02-29T10:29:45.127Z,100982.01
2024-02-29T10:30:51.257Z,100986.08
2024-02-29T10:31:57.277Z,100983.08
2024-02-29T10:32:59.861Z,100981.22
2024-02-29T10:34:02.358Z,100975.63
2024-02-29T10:35:20.869Z,100979.62
2024-02-29T10:36:23.993Z,100975.09
2024-02-29T10:37:26.687Z,100962.57
2024-02-29T10:38:29.467Z,100972.05
2024-02-29T10:39:32.811Z,100965.80
2024-02-29T10:40:36.401Z,100963.91
2024-02-29T10:41:39.149Z,100962.87
2024-02-29T10:42:42.424Z,100961.08
2024-02-29T10:43:45.087Z,100967.06
2024-02-29T10:44:49.488Z,100963.95
2024-02-29T10:45:53.367Z,100962.73
2024-02-29T10:46:56.406Z,100952.59
2024-02-29T10:48:17.938Z,100959.34
2024-02-29T10:50:59.726Z,100951.47
2024-02-29T10:52:10.115Z,100957.62
2024-02-29T10:54:39.388Z,100957.17
2024-02-29T10:56:57.569Z,100954.51
2024-02-29T10:59:20.550Z,100947.95
2024-02-29T11:00:24.145Z,100958.29
2024-02-29T11:01:26.680Z,100955.55
2024-02-29T11:02:29.604Z,100958.78
2024-02-29T11:03:32.293Z,100947.84
2024-02-29T11:04:34.883Z,100950.89
2024-02-29T11:05:37.667Z,100953.28
2024-02-29T11:06:42.365Z,100950.44
2024-02-29T11:07:45.572Z,100946.91
2024-02-29T11:08:48.678Z,100945.48
2024-02-29T11:09:52.079Z,100940.36
2024-02-29T11:10:56.161Z,100945.30
2024-02-29T11:12:13.242Z,100942.45
2024-02-29T11:13:19.492Z,100941.48
2024-02-29T11:14:25.607Z,100939.38
2024-02-29T11:15:28.386Z,100940.05
2024-02-29T11:17:46.669Z,100938.94
2024-02-29T11:18:49.456Z,100943.27
2024-02-29T11:19:58.623Z,100948.70
2024-02-29T11:22:14.319Z,100935.88
2024-02-29T11:23:19.119Z,100940.16
2024-02-29T11:24:22.039Z,100941.66
2024-02-29T11:25:29.645Z,100938.14
2024-02-29T11:27:51.352Z,100934.23
2024-02-29T11:28:54.003Z,100932.56
2024-02-29T11:30:01.245Z,100930.77
2024-02-29T11:31:17.989Z,100930.77
2024-02-29T11:32:26.735Z,100935.22
2024-02-29T11:33:32.877Z,100927.24
2024-02-29T11:34:35.429Z,100933.50
2024-02-29T11:35:38.080Z,100936.46
2024-02-29T11:36:40.921Z,100927.63
2024-02-29T11:37:44.431Z,100938.73
2024-02-29T11:38:47.628Z,100932.36
2024-02-29T11:39:50.392Z,100936.36
2024-02-29T11:40:53.229Z,100940.06
2024-02-29T11:42:03.894Z,100933.31
2024-02-29T11:43:06.546Z,100937.01
2024-02-29T11:44:09.053Z,100935.22
2024-02-29T11:45:21.375Z,100929.97
2024-02-29T11:46:24.246Z,100934.61
2024-02-29T11:47:26.810Z,100934.53
2024-02-29T11:48:29.790Z,100930.83
2024-02-29T11:49:32.211Z,100930.73
2024-02-29T11:50:34.918Z,100933.13
2024-02-29T11:51:37.602Z,100939.20
2024-02-29T11:52:40.098Z,100933.70
2024-02-29T11:53:43.149Z,100930.86
2024-02-29T11:54:45.805Z,100927.23
2024-02-29T11:55:56.217Z,100933.04
2024-02-29T11:56:53.224Z,100927.83
2024-02-29T11:57:56.142Z,100925.81
2024-02-29T11:59:03.746Z,100922.11
2024-02-29T12:00:10.178Z,100925.44
2024-02-29T12:01:13.955Z,100923.46
2024-02-29T12:02:16.730Z,100922.30
2024-02-29T12:03:19.016Z,100918.59
2024-02-29T12:04:22.001Z,100919.45
2024-02-29T12:05:24.541Z,100913.01
2024-02-29T12:06:27.310Z,100913.87
2024-02-29T12:07:29.953Z,100909.19
2024-02-29T12:08:32.999Z,100910.80
2024-02-29T12:09:35.868Z,100900.16
2024-02-29T12:10:44.665Z,100905.29
2024-02-29T12:11:48.576Z,100907.68